Main page
METAR-TAF:

METAR-TAF

Airports :

Bou Saada Airport

Bou Saâda, Algeria

latitude: 35-20N, longitude: 004-12E, elevation: 461 m

Current weather observation

The report was made 7 hours and 57 minutes ago, at 18:00 UTC
Wind 4 kt from the East/Southeast
Temperature 16°C
Humidity 42%
Pressure 1023 hPa
Visibility: 7000 m
Few clouds at a height of 2600 ft
Scattered clouds at a height of 10000 ft

METAR: DAAD 021800Z 12004KT 7000 FEW026 SCT100 16/03 Q1023

Time: 02:57 (01:57 UTC)

Forecast

The report was made 8 hours and 57 minutes ago, at 17:00 UTC
Forecast valid from 02 at 18 UTC to 03 at 03 UTC
Wind 8 kt from the East
Visibility: 8000 m
Few clouds at a height of 2600 ft
Scattered clouds at a height of 10000 ft

TAF: DAAD 021700Z 0218/0303 08008KT 8000 FEW026 SCT100

Weather observations and forecasts of more than 4000 airports (METAR and TAF reports).

The available stations are represented by yellow and red dots on the map.

Hover mouse over dot to see the name of the station.

Then click to see weather observations and forecasts.

To change the map : click on the green buttons with a black cross to zoom in, on the green button with a dash to zoom out, or on the green arrows for adjacent maps.


METAR-TAF: